createdAt,value
2023-05-05T00:01:03.136Z,101078.38
2023-05-05T00:03:30.224Z,101078.34
2023-05-05T00:05:58.165Z,101086.22
2023-05-05T00:08:25.162Z,101080.91
2023-05-05T00:10:53.814Z,101083.47
2023-05-05T00:13:21.906Z,101087.00
2023-05-05T00:15:50.818Z,101077.41
2023-05-05T00:18:19.284Z,101077.44
2023-05-05T00:20:47.449Z,101073.94
2023-05-05T00:23:15.736Z,101069.50
2023-05-05T00:25:42.844Z,101074.69
2023-05-05T00:28:10.022Z,101076.41
2023-05-05T00:30:37.642Z,101069.34
2023-05-05T00:33:04.820Z,101071.97
2023-05-05T00:35:31.971Z,101064.16
2023-05-05T00:37:59.657Z,101070.38
2023-05-05T00:40:26.876Z,101066.84
2023-05-05T00:42:54.039Z,101070.34
2023-05-05T00:45:21.101Z,101068.66
2023-05-05T00:47:51.538Z,101068.69
2023-05-05T00:50:30.212Z,101058.09
2023-05-05T00:53:01.180Z,101061.66
2023-05-05T00:55:31.739Z,101068.69
2023-05-05T00:57:59.728Z,101060.75
2023-05-05T01:00:27.868Z,101055.53
2023-05-05T01:02:56.021Z,101060.78
2023-05-05T01:05:24.625Z,101061.66
2023-05-05T01:07:58.843Z,101062.56
2023-05-05T01:10:37.316Z,101069.56
2023-05-05T01:13:46.270Z,101066.94
2023-05-05T01:16:24.628Z,101068.72
2023-05-05T01:18:58.660Z,101062.53
2023-05-05T01:21:56.265Z,101056.38
2023-05-05T01:24:32.256Z,101052.81
2023-05-05T01:27:18.224Z,101053.66
2023-05-05T01:29:57.441Z,101042.25
2023-05-05T01:32:30.115Z,101042.09
2023-05-05T01:35:10.216Z,101035.94
2023-05-05T01:37:52.210Z,101037.59
2023-05-05T01:40:25.215Z,101042.97
2023-05-05T01:42:55.649Z,101039.44
2023-05-05T01:45:27.359Z,101042.78
2023-05-05T01:47:56.696Z,101032.59
2023-05-05T01:50:28.277Z,101044.94
2023-05-05T01:52:56.824Z,101036.84
2023-05-05T01:55:26.423Z,101034.94
2023-05-05T01:57:55.407Z,101032.56
2023-05-05T02:00:25.220Z,101030.66
2023-05-05T02:02:55.106Z,101025.19
2023-05-05T02:05:24.848Z,101023.47
2023-05-05T02:07:55.251Z,101031.75
2023-05-05T02:10:22.385Z,101024.03
2023-05-05T02:12:52.332Z,101024.16
2023-05-05T02:15:22.155Z,101029.28
2023-05-05T02:17:54.464Z,101024.97
2023-05-05T02:20:24.454Z,101025.75
2023-05-05T02:22:51.486Z,101017.94
2023-05-05T02:25:18.674Z,101023.09
2023-05-05T02:27:48.183Z,101026.31
2023-05-05T02:30:18.415Z,101024.44
2023-05-05T02:32:54.742Z,101027.25
2023-05-05T02:35:27.605Z,101026.06
2023-05-05T02:38:02.836Z,101033.22
2023-05-05T02:40:35.772Z,101031.38
2023-05-05T02:43:08.267Z,101028.66
2023-05-05T02:45:35.369Z,101027.53
2023-05-05T02:48:07.096Z,101031.91
2023-05-05T02:50:38.473Z,101021.53
2023-05-05T02:53:32.681Z,101035.81
2023-05-05T02:56:20.020Z,101030.25
2023-05-05T02:59:04.322Z,101032.72
2023-05-05T03:01:57.329Z,101035.50
2023-05-05T03:04:32.412Z,101032.25
2023-05-05T03:07:07.306Z,101041.63
2023-05-05T03:09:41.807Z,101036.66
2023-05-05T03:12:12.623Z,101043.81
2023-05-05T03:15:02.450Z,101038.66
2023-05-05T03:17:33.226Z,101038.72
2023-05-05T03:20:03.600Z,101042.28
2023-05-05T03:22:37.874Z,101058.09
2023-05-05T03:25:09.855Z,101049.94
2023-05-05T03:27:37.470Z,101045.38
2023-05-05T03:30:05.868Z,101057.91
2023-05-05T03:32:35.740Z,101060.59
2023-05-05T03:35:02.869Z,101055.94
2023-05-05T03:37:33.259Z,101062.78
2023-05-05T03:40:00.668Z,101063.84
2023-05-05T03:42:27.851Z,101071.22
2023-05-05T03:44:55.154Z,101076.56
2023-05-05T03:47:24.850Z,101068.69
2023-05-05T03:49:53.565Z,101070.47
2023-05-05T03:52:20.560Z,101071.34
2023-05-05T03:54:47.758Z,101078.34
2023-05-05T03:57:14.832Z,101077.47
2023-05-05T03:59:41.886Z,101077.50
2023-05-05T04:02:09.588Z,101087.16
2023-05-05T04:04:36.840Z,101085.38
2023-05-05T04:07:03.884Z,101084.50
2023-05-05T04:09:30.943Z,101088.00
2023-05-05T04:11:58.168Z,101091.53
2023-05-05T04:14:25.252Z,101082.72
2023-05-05T04:16:52.874Z,101086.25
2023-05-05T04:19:20.302Z,101076.59
2023-05-05T04:21:47.472Z,101080.97
2023-05-05T04:24:14.608Z,101080.84
2023-05-05T04:26:42.363Z,101067.38
2023-05-05T04:29:09.981Z,101062.97
2023-05-05T04:31:37.463Z,101058.28
2023-05-05T04:34:05.037Z,101070.38
2023-05-05T04:36:32.278Z,101074.03
2023-05-05T04:38:59.677Z,101062.75
2023-05-05T04:41:28.908Z,101055.91
2023-05-05T04:43:57.911Z,101056.94
2023-05-05T04:46:25.744Z,101064.91
2023-05-05T04:48:52.969Z,101061.69
2023-05-05T04:51:20.156Z,101057.78
2023-05-05T04:53:47.328Z,101055.78
2023-05-05T04:56:14.348Z,101047.19
2023-05-05T04:58:41.516Z,101054.22
2023-05-05T05:01:08.615Z,101053.13
2023-05-05T05:03:36.705Z,101054.03
2023-05-05T05:06:04.043Z,101051.75
2023-05-05T05:08:31.090Z,101056.09
2023-05-05T05:11:00.105Z,101055.13
2023-05-05T05:13:27.251Z,101055.22
2023-05-05T05:15:54.809Z,101059.44
2023-05-05T05:18:21.802Z,101061.09
2023-05-05T05:20:50.113Z,101065.72
2023-05-05T05:23:17.100Z,101067.78
2023-05-05T05:25:46.121Z,101061.63
2023-05-05T05:28:15.504Z,101056.47
2023-05-05T05:30:48.001Z,101061.53
2023-05-05T05:33:15.186Z,101059.00
2023-05-05T05:35:43.113Z,101066.50
2023-05-05T05:38:10.586Z,101064.44
2023-05-05T05:40:38.129Z,101071.94
2023-05-05T05:43:05.217Z,101073.31
2023-05-05T05:45:33.638Z,101075.69
2023-05-05T05:48:03.249Z,101072.50
2023-05-05T05:50:30.480Z,101084.59
2023-05-05T05:52:58.947Z,101089.19
2023-05-05T05:55:27.725Z,101088.94
2023-05-05T05:57:55.071Z,101083.81
2023-05-05T06:00:22.222Z,101086.94
2023-05-05T06:02:56.287Z,101085.09
2023-05-05T06:05:27.077Z,101087.88
2023-05-05T06:07:54.719Z,101087.78
2023-05-05T06:10:28.034Z,101085.56
2023-05-05T06:13:03.779Z,101078.47
2023-05-05T06:15:32.621Z,101091.06
2023-05-05T06:18:01.782Z,101095.03
2023-05-05T06:20:28.923Z,101095.16
2023-05-05T06:22:56.342Z,101097.47
2023-05-05T06:25:24.707Z,101107.41
2023-05-05T06:27:52.303Z,101100.31
2023-05-05T06:30:19.360Z,101111.09
2023-05-05T06:32:46.324Z,101097.13
2023-05-05T06:35:13.388Z,101100.84
2023-05-05T06:37:40.470Z,101106.25
2023-05-05T06:40:08.467Z,101106.50
2023-05-05T06:42:36.089Z,101114.38
2023-05-05T06:45:05.590Z,101110.47
2023-05-05T06:47:32.828Z,101113.25
2023-05-05T06:49:59.965Z,101107.47
2023-05-05T06:52:26.972Z,101112.59
2023-05-05T06:54:54.019Z,101103.38
2023-05-05T06:57:21.249Z,101105.47
2023-05-05T06:59:48.215Z,101108.78
2023-05-05T07:02:15.204Z,101105.78
2023-05-05T07:04:44.129Z,101116.66
2023-05-05T07:07:11.181Z,101109.81
2023-05-05T07:09:38.235Z,101115.84
2023-05-05T07:12:05.444Z,101116.97
2023-05-05T07:14:32.423Z,101122.09
2023-05-05T07:16:59.461Z,101124.50
2023-05-05T07:19:26.594Z,101120.72
2023-05-05T07:21:53.521Z,101124.97
2023-05-05T07:24:20.575Z,101128.03
2023-05-05T07:26:47.583Z,101136.06
2023-05-05T07:29:14.656Z,101120.69
2023-05-05T07:31:41.800Z,101120.13
2023-05-05T07:34:08.876Z,101124.81
2023-05-05T07:36:35.997Z,101124.13
2023-05-05T07:39:03.122Z,101129.00
2023-05-05T07:41:30.296Z,101129.53
2023-05-05T07:43:57.506Z,101128.69
2023-05-05T07:46:24.773Z,101132.44
2023-05-05T07:48:51.914Z,101130.09
2023-05-05T07:51:18.975Z,101131.34
2023-05-05T07:53:46.434Z,101131.06
2023-05-05T07:56:13.555Z,101132.59
2023-05-05T07:58:41.054Z,101136.41
2023-05-05T08:01:11.120Z,101136.50
2023-05-05T08:03:38.480Z,101135.03
2023-05-05T08:06:12.261Z,101130.56
2023-05-05T08:08:39.306Z,101127.50
2023-05-05T08:11:06.795Z,101135.94
2023-05-05T08:13:34.402Z,101134.75
2023-05-05T08:16:01.450Z,101135.00
2023-05-05T08:18:28.721Z,101132.03
2023-05-05T08:20:55.837Z,101134.13
2023-05-05T08:23:22.982Z,101133.25
2023-05-05T08:25:50.081Z,101125.94
2023-05-05T08:28:17.241Z,101124.63
2023-05-05T08:30:44.788Z,101121.59
2023-05-05T08:33:11.841Z,101120.47
2023-05-05T08:35:39.096Z,101124.47
2023-05-05T08:38:06.285Z,101117.28
2023-05-05T08:40:37.621Z,101125.59
2023-05-05T08:43:05.094Z,101121.75
2023-05-05T08:45:32.753Z,101115.34
2023-05-05T08:48:05.224Z,101121.31
2023-05-05T08:50:33.285Z,101121.88
2023-05-05T08:53:15.914Z,101121.09
2023-05-05T08:55:56.160Z,101108.00
2023-05-05T08:58:28.903Z,101108.00
2023-05-05T09:00:57.047Z,101113.06
2023-05-05T09:03:27.159Z,101108.00
2023-05-05T09:05:54.391Z,101104.72
2023-05-05T09:08:22.402Z,101095.59
2023-05-05T09:10:51.873Z,101099.44
2023-05-05T09:13:19.197Z,101094.44
2023-05-05T09:15:46.301Z,101095.38
2023-05-05T09:18:13.617Z,101083.63
2023-05-05T09:20:42.099Z,101086.38
2023-05-05T09:23:11.495Z,101092.69
2023-05-05T09:25:39.761Z,101084.94
2023-05-05T09:28:12.172Z,101084.75
2023-05-05T09:30:40.930Z,101081.47
2023-05-05T09:33:08.324Z,101078.56
2023-05-05T09:35:53.336Z,101086.28
2023-05-05T09:38:21.228Z,101068.16
2023-05-05T09:40:53.033Z,101072.72
2023-05-05T09:43:21.834Z,101077.22
2023-05-05T09:45:49.679Z,101073.66
2023-05-05T09:48:31.545Z,101073.31
2023-05-05T09:50:59.366Z,101069.72
2023-05-05T09:53:27.162Z,101066.63
2023-05-05T09:55:59.137Z,101062.31
2023-05-05T09:58:27.778Z,101077.09
2023-05-05T10:00:56.233Z,101071.72
2023-05-05T10:03:24.149Z,101069.13
2023-05-05T10:05:53.337Z,101064.22
2023-05-05T10:08:31.611Z,101073.44
2023-05-05T10:11:01.227Z,101071.00
2023-05-05T10:13:29.021Z,101069.19
2023-05-05T10:15:58.007Z,101072.53
2023-05-05T10:18:27.152Z,101065.50
2023-05-05T10:20:57.507Z,101073.06
2023-05-05T10:23:28.567Z,101060.00
2023-05-05T10:26:05.940Z,101057.13
2023-05-05T10:28:55.219Z,101056.19
2023-05-05T10:31:33.981Z,101061.13
2023-05-05T10:34:06.194Z,101066.25
2023-05-05T10:36:34.375Z,101058.16
2023-05-05T10:39:03.240Z,101051.97
2023-05-05T10:41:32.282Z,101048.16
2023-05-05T10:44:02.028Z,101043.91
2023-05-05T10:46:30.845Z,101038.06
2023-05-05T10:49:13.555Z,101043.59
2023-05-05T10:51:43.575Z,101042.53
2023-05-05T10:54:21.652Z,101033.75
2023-05-05T10:56:49.497Z,101025.72
2023-05-05T10:59:38.218Z,101026.69
2023-05-05T11:02:28.390Z,101034.84
2023-05-05T11:05:21.289Z,101036.34
2023-05-05T11:07:50.905Z,101025.16
2023-05-05T11:10:23.411Z,101028.06
2023-05-05T11:13:10.837Z,101012.19
2023-05-05T11:15:38.308Z,101008.03
2023-05-05T11:18:07.871Z,101005.03
2023-05-05T11:20:36.112Z,101007.06
2023-05-05T11:23:03.280Z,101000.44
2023-05-05T11:25:37.084Z,100991.22
2023-05-05T11:28:16.564Z,100986.53
2023-05-05T11:30:56.177Z,100989.81
2023-05-05T11:33:33.845Z,100974.88
2023-05-05T11:36:06.060Z,100980.91
2023-05-05T11:38:36.784Z,100967.72
2023-05-05T11:41:33.399Z,100972.00
2023-05-05T11:44:13.373Z,100965.66
2023-05-05T11:47:01.766Z,100953.31
2023-05-05T11:49:30.686Z,100949.72
2023-05-05T11:52:03.369Z,100940.50
2023-05-05T11:54:31.483Z,100937.34
2023-05-05T11:57:05.295Z,100933.72
2023-05-05T11:59:33.530Z,100931.09
2023-05-05T12:02:01.298Z,100926.31
2023-05-05T12:04:28.415Z,100928.16
2023-05-05T12:06:55.644Z,100921.47
2023-05-05T12:09:24.049Z,100920.69
2023-05-05T12:11:53.670Z,100912.00
2023-05-05T12:14:21.832Z,100906.78
2023-05-05T12:17:04.391Z,100906.31
2023-05-05T12:19:33.801Z,100901.78
2023-05-05T12:22:01.999Z,100894.38
2023-05-05T12:24:32.423Z,100890.78
2023-05-05T12:27:09.219Z,100887.53
2023-05-05T12:29:36.404Z,100869.66
2023-05-05T12:32:04.405Z,100887.88
2023-05-05T12:34:32.403Z,100878.19
2023-05-05T12:36:59.850Z,100876.94
2023-05-05T12:39:39.299Z,100873.31
2023-05-05T12:42:07.128Z,100859.97
2023-05-05T12:44:38.255Z,100859.84
2023-05-05T12:47:05.772Z,100857.34
2023-05-05T12:49:53.702Z,100845.69
2023-05-05T12:52:21.245Z,100855.13
2023-05-05T12:54:54.886Z,100851.53
2023-05-05T12:57:22.691Z,100847.56
2023-05-05T12:59:50.877Z,100846.88
2023-05-05T13:02:18.158Z,100839.75
2023-05-05T13:04:53.518Z,100840.56
2023-05-05T13:07:22.657Z,100849.94
2023-05-05T13:09:50.690Z,100837.81
2023-05-05T13:12:18.486Z,100837.34
2023-05-05T13:14:46.873Z,100821.19
2023-05-05T13:17:14.706Z,100828.63
2023-05-05T13:19:42.757Z,100819.78
2023-05-05T13:22:10.410Z,100835.38
2023-05-05T13:24:49.737Z,100824.47
2023-05-05T13:27:19.640Z,100823.56
2023-05-05T13:29:46.831Z,100820.38
2023-05-05T13:32:14.075Z,100826.22
2023-05-05T13:34:42.744Z,100827.25
2023-05-05T13:37:09.977Z,100825.28
2023-05-05T13:39:37.155Z,100825.16
2023-05-05T13:42:04.453Z,100809.00
2023-05-05T13:44:31.616Z,100812.78
2023-05-05T13:46:58.760Z,100809.13
2023-05-05T13:49:26.108Z,100812.31
2023-05-05T13:51:53.245Z,100808.13
2023-05-05T13:54:20.330Z,100809.66
2023-05-05T13:56:47.430Z,100796.97
2023-05-05T13:59:14.476Z,100793.38
2023-05-05T14:01:41.586Z,100787.66
2023-05-05T14:04:08.794Z,100789.34
2023-05-05T14:06:36.368Z,100787.84
2023-05-05T14:09:06.260Z,100782.97
2023-05-05T14:11:33.872Z,100787.47
2023-05-05T14:14:00.931Z,100782.22
2023-05-05T14:16:28.023Z,100787.63
2023-05-05T14:18:55.305Z,100773.88
2023-05-05T14:21:22.522Z,100765.50
2023-05-05T14:23:49.680Z,100751.16
2023-05-05T14:26:16.926Z,100759.13
2023-05-05T14:28:44.594Z,100758.06
2023-05-05T14:31:12.147Z,100760.50
2023-05-05T14:33:39.284Z,100751.66
2023-05-05T14:36:06.736Z,100756.47
2023-05-05T14:38:33.830Z,100761.00
2023-05-05T14:41:01.125Z,100765.28
2023-05-05T14:43:28.174Z,100748.19
2023-05-05T14:45:55.396Z,100754.09
2023-05-05T14:48:22.747Z,100754.94
2023-05-05T14:50:50.125Z,100755.94
2023-05-05T14:53:19.149Z,100753.06
2023-05-05T14:55:46.287Z,100759.47
2023-05-05T14:58:13.344Z,100759.97
2023-05-05T15:00:40.386Z,100749.59
2023-05-05T15:03:07.526Z,100759.50
2023-05-05T15:05:35.272Z,100756.44
2023-05-05T15:08:02.336Z,100746.88
2023-05-05T15:10:29.409Z,100752.31
2023-05-05T15:12:56.580Z,100759.50
2023-05-05T15:15:23.707Z,100761.75
2023-05-05T15:17:50.764Z,100754.97
2023-05-05T15:20:17.931Z,100748.22
2023-05-05T15:22:44.985Z,100753.31
2023-05-05T15:25:14.905Z,100741.56
2023-05-05T15:27:42.251Z,100744.88
2023-05-05T15:30:09.943Z,100748.09
2023-05-05T15:32:37.131Z,100749.16
2023-05-05T15:35:04.789Z,100756.19
2023-05-05T15:37:32.200Z,100753.59
2023-05-05T15:39:59.661Z,100749.16
2023-05-05T15:42:26.913Z,100742.38
2023-05-05T15:44:53.967Z,100745.72
2023-05-05T15:47:21.047Z,100740.38
2023-05-05T15:49:48.299Z,100745.03
2023-05-05T15:52:15.488Z,100745.56
2023-05-05T15:54:42.624Z,100739.84
2023-05-05T15:57:09.885Z,100747.19
2023-05-05T15:59:36.923Z,100747.00
2023-05-05T16:02:04.066Z,100753.25
2023-05-05T16:04:31.148Z,100752.56
2023-05-05T16:06:58.302Z,100750.81
2023-05-05T16:09:25.416Z,100751.00
2023-05-05T16:11:54.648Z,100753.44
2023-05-05T16:14:21.811Z,100746.03
2023-05-05T16:16:49.284Z,100754.97
2023-05-05T16:19:16.834Z,100753.06
2023-05-05T16:21:44.134Z,100755.00
2023-05-05T16:24:16.033Z,100762.41
2023-05-05T16:26:43.866Z,100759.50
2023-05-05T16:29:11.847Z,100758.63
2023-05-05T16:31:39.123Z,100759.34
2023-05-05T16:34:06.397Z,100769.56
2023-05-05T16:36:33.448Z,100754.84
2023-05-05T16:39:00.754Z,100764.22
2023-05-05T16:41:27.878Z,100765.84
2023-05-05T16:43:54.971Z,100756.06
2023-05-05T16:46:22.216Z,100772.47
2023-05-05T16:48:49.295Z,100773.28
2023-05-05T16:51:16.357Z,100770.03
2023-05-05T16:53:43.369Z,100760.81
2023-05-05T16:56:13.308Z,100769.97
2023-05-05T16:58:40.845Z,100770.72
2023-05-05T17:01:08.151Z,100760.78
2023-05-05T17:03:36.078Z,100767.75
2023-05-05T17:06:03.449Z,100767.13
2023-05-05T17:08:30.950Z,100763.66
2023-05-05T17:10:58.561Z,100762.88
2023-05-05T17:13:25.672Z,100769.44
2023-05-05T17:15:52.758Z,100772.22
2023-05-05T17:18:21.910Z,100780.72
2023-05-05T17:20:50.116Z,100790.34
2023-05-05T17:23:17.272Z,100783.13
2023-05-05T17:25:44.492Z,100781.81
2023-05-05T17:28:11.638Z,100780.81
2023-05-05T17:30:38.685Z,100784.94
2023-05-05T17:33:05.906Z,100787.03
2023-05-05T17:35:33.180Z,100790.13
2023-05-05T17:38:00.465Z,100796.41
2023-05-05T17:40:27.600Z,100793.06
2023-05-05T17:42:54.754Z,100807.81
2023-05-05T17:45:21.882Z,100815.81
2023-05-05T17:47:48.953Z,100811.47
2023-05-05T17:50:16.211Z,100813.94
2023-05-05T17:52:45.231Z,100816.22
2023-05-05T17:55:12.869Z,100819.19
2023-05-05T17:57:40.112Z,100818.16
2023-05-05T18:00:09.060Z,100818.75
2023-05-05T18:02:42.092Z,100830.91
2023-05-05T18:05:09.973Z,100838.19
2023-05-05T18:07:38.755Z,100839.50
2023-05-05T18:10:10.701Z,100837.41
2023-05-05T18:12:37.983Z,100843.03
2023-05-05T18:15:05.933Z,100844.69
2023-05-05T18:17:33.088Z,100847.16
2023-05-05T18:20:00.323Z,100852.06
2023-05-05T18:22:27.703Z,100837.81
2023-05-05T18:24:59.134Z,100843.34
2023-05-05T18:27:27.795Z,100842.75
2023-05-05T18:29:55.377Z,100847.03
2023-05-05T18:32:22.846Z,100845.53
2023-05-05T18:34:50.471Z,100850.84
2023-05-05T18:37:17.568Z,100844.16
2023-05-05T18:39:45.283Z,100847.63
2023-05-05T18:42:13.158Z,100850.19
2023-05-05T18:44:40.395Z,100851.53
2023-05-05T18:47:08.171Z,100856.09
2023-05-05T18:49:35.847Z,100860.91
2023-05-05T18:52:03.190Z,100851.06
2023-05-05T18:54:30.408Z,100859.03
2023-05-05T18:56:57.802Z,100858.03
2023-05-05T18:59:24.905Z,100857.41
2023-05-05T19:01:52.065Z,100859.78
2023-05-05T19:07:07.568Z,100861.94
2023-05-05T19:09:36.204Z,100856.84
2023-05-05T19:12:03.945Z,100859.63
2023-05-05T19:14:31.314Z,100855.41
2023-05-05T19:17:01.748Z,100856.41
2023-05-05T19:19:29.017Z,100854.97
2023-05-05T19:21:56.145Z,100857.88
2023-05-05T19:24:23.184Z,100858.34
2023-05-05T19:26:50.485Z,100853.84
2023-05-05T19:29:17.871Z,100855.91
2023-05-05T19:31:45.172Z,100861.75
2023-05-05T19:34:12.257Z,100865.97
2023-05-05T19:36:39.429Z,100859.06
2023-05-05T19:39:06.489Z,100859.97
2023-05-05T19:41:35.366Z,100850.53
2023-05-05T19:44:03.131Z,100856.59
2023-05-05T19:46:30.275Z,100853.53
2023-05-05T19:48:57.480Z,100860.06
2023-05-05T19:51:24.608Z,100862.06
2023-05-05T19:53:51.814Z,100860.31
2023-05-05T19:56:19.151Z,100858.00
2023-05-05T19:58:57.597Z,100865.44
2023-05-05T20:01:25.368Z,100854.69
2023-05-05T20:03:55.230Z,100848.25
2023-05-05T20:06:22.919Z,100846.63
2023-05-05T20:08:50.045Z,100852.19
2023-05-05T20:11:17.765Z,100849.69
2023-05-05T20:13:44.871Z,100848.16
2023-05-05T20:16:12.321Z,100855.25
2023-05-05T20:18:40.405Z,100844.59
2023-05-05T20:21:07.586Z,100852.97
2023-05-05T20:23:34.755Z,100856.31
2023-05-05T20:26:02.236Z,100857.38
2023-05-05T20:28:31.730Z,100839.47
2023-05-05T20:31:00.733Z,100835.78
2023-05-05T20:33:30.982Z,100837.50
2023-05-05T20:35:58.047Z,100829.84
2023-05-05T20:38:25.248Z,100827.03
2023-05-05T20:40:52.484Z,100834.75
2023-05-05T20:43:19.703Z,100830.97
2023-05-05T20:45:46.822Z,100846.81
2023-05-05T20:48:13.934Z,100839.47
2023-05-05T20:50:42.317Z,100840.53
2023-05-05T20:53:10.882Z,100839.13
2023-05-05T20:55:37.961Z,100837.50
2023-05-05T20:58:07.548Z,100835.56
2023-05-05T21:00:34.959Z,100832.69
2023-05-05T21:03:05.239Z,100825.47
2023-05-05T21:05:32.468Z,100836.72
2023-05-05T21:08:01.060Z,100828.09
2023-05-05T21:10:29.219Z,100831.94
2023-05-05T21:12:56.449Z,100834.41
2023-05-05T21:15:23.547Z,100828.09
2023-05-05T21:17:51.255Z,100826.22
2023-05-05T21:20:18.915Z,100821.41
2023-05-05T21:22:46.574Z,100823.88
2023-05-05T21:25:14.734Z,100820.22
2023-05-05T21:27:41.847Z,100819.75
2023-05-05T21:30:11.128Z,100810.31
2023-05-05T21:32:42.196Z,100812.59
2023-05-05T21:35:09.672Z,100810.75
2023-05-05T21:37:40.626Z,100809.81
2023-05-05T21:40:13.928Z,100808.59
2023-05-05T21:42:44.104Z,100805.78
2023-05-05T21:45:12.118Z,100798.06
2023-05-05T21:47:39.264Z,100788.91
2023-05-05T21:50:07.482Z,100791.53
2023-05-05T21:52:34.769Z,100790.72
2023-05-05T21:55:02.201Z,100784.41
2023-05-05T21:57:29.429Z,100782.66
2023-05-05T21:59:56.588Z,100782.22
2023-05-05T22:02:23.944Z,100774.59
2023-05-05T22:04:51.813Z,100778.69
2023-05-05T22:07:19.218Z,100781.66
2023-05-05T22:09:46.341Z,100773.16
2023-05-05T22:12:13.493Z,100773.66
2023-05-05T22:14:40.701Z,100771.72
2023-05-05T22:17:07.818Z,100769.84
2023-05-05T22:19:34.925Z,100764.75
2023-05-05T22:22:02.844Z,100760.28
2023-05-05T22:24:30.660Z,100754.97
2023-05-05T22:26:58.363Z,100751.31
2023-05-05T22:29:25.468Z,100745.09
2023-05-05T22:31:52.859Z,100736.44
2023-05-05T22:34:21.951Z,100746.19
2023-05-05T22:36:49.761Z,100731.28
2023-05-05T22:39:18.778Z,100720.59
2023-05-05T22:41:46.250Z,100734.16
2023-05-05T22:44:13.428Z,100726.06
2023-05-05T22:46:41.025Z,100724.75
2023-05-05T22:49:08.823Z,100726.75
2023-05-05T22:51:36.024Z,100725.84
2023-05-05T22:54:03.287Z,100716.03
2023-05-05T22:56:30.426Z,100718.19
2023-05-05T22:58:57.605Z,100714.19
2023-05-05T23:01:24.777Z,100707.66
2023-05-05T23:03:52.003Z,100698.78
2023-05-05T23:06:19.146Z,100695.38
2023-05-05T23:08:46.357Z,100691.84
2023-05-05T23:11:13.491Z,100686.16
2023-05-05T23:13:40.799Z,100687.56
2023-05-05T23:16:07.975Z,100683.84
2023-05-05T23:18:36.211Z,100682.91
2023-05-05T23:21:03.506Z,100676.53
2023-05-05T23:23:31.264Z,100676.31
2023-05-05T23:25:58.336Z,100676.19
2023-05-05T23:28:25.507Z,100670.88
2023-05-05T23:30:52.691Z,100672.47
2023-05-05T23:33:19.912Z,100678.28
2023-05-05T23:35:47.263Z,100668.13
2023-05-05T23:38:14.298Z,100665.53
2023-05-05T23:40:41.373Z,100681.53
2023-05-05T23:43:08.465Z,100684.69
2023-05-05T23:45:35.573Z,100683.00
2023-05-05T23:48:02.672Z,100680.75
2023-05-05T23:50:30.499Z,100683.59
2023-05-05T23:52:57.667Z,100679.63
2023-05-05T23:55:24.848Z,100678.75
2023-05-05T23:57:53.231Z,100681.13
